<?xml version="1.0" encoding="UTF-8" standalone="no" ?>
<gpx xmlns="http://www.topografix.com/GPX/1/1" xmlns:xsi="http://www.w3.org/2001/XMLSchema-instance" xsi:schemaLocation="http://www.topografix.com/GPX/1/1 http://www.topografix.com/GPX/1/1/gpx.xsd" version="1.1" creator="VisuGPX - https://www.visugpx.com">
  <metadata>
    <name>Circuit du Chemin d'Avesnes à Beaufort</name>
    <desc><![CDATA[Beaufort]]></desc>
  </metadata>
  <wpt lat="50.21439" lon="3.96172">
    <ele>169</ele>
    <name><![CDATA[Église de Beaufort]]></name>
  </wpt>
  <wpt lat="50.19909" lon="3.96088">
    <ele>198</ele>
    <name><![CDATA[Bois le Roi, à gauche]]></name>
  </wpt>
  <wpt lat="50.20009" lon="3.97831">
    <ele>207</ele>
    <name><![CDATA[Chemin Chevaleret]]></name>
  </wpt>
  <wpt lat="50.2114" lon="3.98272">
    <ele>185</ele>
    <name><![CDATA[Route, à droite]]></name>
  </wpt>
  <wpt lat="50.21617" lon="3.97085">
    <ele>171</ele>
    <name><![CDATA[Ruelle bocagère à droite ]]></name>
  </wpt>
  <wpt lat="50.21721" lon="3.96532">
    <ele>179</ele>
    <name><![CDATA[RD55, en face]]></name>
  </wpt>
  <wpt lat="50.21468" lon="3.95741">
    <ele>168</ele>
    <name><![CDATA[Rue Pasteur, droite-gauche]]></name>
  </wpt>
  <wpt lat="50.21438" lon="3.96166">
    <ele>169</ele>
    <name><![CDATA[Église de Beaufort]]></name>
  </wpt>
  <trk>
    <name><![CDATA[Circuit du Chemin d'Avesnes à Beaufort]]></name>
    <trkseg>
      <trkpt lat="50.21439" lon="3.96172">
        <ele>169</ele>
        <time>2012-09-12T15:40:31+02:00</time>
      </trkpt>
      <trkpt lat="50.21445" lon="3.9621">
        <ele>169</ele>
        <time>2012-09-12T15:41:23+02:00</time>
      </trkpt>
      <trkpt lat="50.21449" lon="3.96229">
        <ele>169</ele>
        <time>2012-09-12T15:41:42+02:00</time>
      </trkpt>
      <trkpt lat="50.2138" lon="3.96251">
        <ele>168</ele>
        <time>2012-09-12T15:42:23+02:00</time>
      </trkpt>
      <trkpt lat="50.21337" lon="3.96235">
        <ele>167</ele>
        <time>2012-09-12T15:42:57+02:00</time>
      </trkpt>
      <trkpt lat="50.21319" lon="3.9623">
        <ele>167</ele>
        <time>2012-09-12T15:43:05+02:00</time>
      </trkpt>
      <trkpt lat="50.21298" lon="3.96225">
        <ele>168</ele>
        <time>2012-09-12T15:43:14+02:00</time>
      </trkpt>
      <trkpt lat="50.21286" lon="3.96225">
        <ele>168</ele>
        <time>2012-09-12T15:43:21+02:00</time>
      </trkpt>
      <trkpt lat="50.21275" lon="3.96225">
        <ele>169</ele>
        <time>2012-09-12T15:43:27+02:00</time>
      </trkpt>
      <trkpt lat="50.21261" lon="3.96229">
        <ele>169</ele>
        <time>2012-09-12T15:43:34+02:00</time>
      </trkpt>
      <trkpt lat="50.21261" lon="3.9624">
        <ele>169</ele>
        <time>2012-09-12T15:43:40+02:00</time>
      </trkpt>
      <trkpt lat="50.2126" lon="3.96255">
        <ele>170</ele>
        <time>2012-09-12T15:43:45+02:00</time>
      </trkpt>
      <trkpt lat="50.2125" lon="3.96258">
        <ele>170</ele>
        <time>2012-09-12T15:43:52+02:00</time>
      </trkpt>
      <trkpt lat="50.21237" lon="3.96261">
        <ele>170</ele>
        <time>2012-09-12T15:44:39+02:00</time>
      </trkpt>
      <trkpt lat="50.21228" lon="3.96261">
        <ele>170</ele>
        <time>2012-09-12T15:44:52+02:00</time>
      </trkpt>
      <trkpt lat="50.21214" lon="3.96264">
        <ele>170</ele>
        <time>2012-09-12T15:44:56+02:00</time>
      </trkpt>
      <trkpt lat="50.212" lon="3.96268">
        <ele>170</ele>
        <time>2012-09-12T15:45:00+02:00</time>
      </trkpt>
      <trkpt lat="50.21189" lon="3.9627">
        <ele>170</ele>
        <time>2012-09-12T15:45:02+02:00</time>
      </trkpt>
      <trkpt lat="50.21178" lon="3.96276">
        <ele>170</ele>
        <time>2012-09-12T15:45:04+02:00</time>
      </trkpt>
      <trkpt lat="50.21167" lon="3.96275">
        <ele>170</ele>
        <time>2012-09-12T15:45:06+02:00</time>
      </trkpt>
      <trkpt lat="50.21155" lon="3.96279">
        <ele>171</ele>
        <time>2012-09-12T15:45:08+02:00</time>
      </trkpt>
      <trkpt lat="50.21139" lon="3.96283">
        <ele>171</ele>
        <time>2012-09-12T15:45:10+02:00</time>
      </trkpt>
      <trkpt lat="50.21132" lon="3.96285">
        <ele>171</ele>
        <time>2012-09-12T15:45:12+02:00</time>
      </trkpt>
      <trkpt lat="50.21122" lon="3.96287">
        <ele>171</ele>
        <time>2012-09-12T15:45:14+02:00</time>
      </trkpt>
      <trkpt lat="50.21112" lon="3.9629">
        <ele>171</ele>
        <time>2012-09-12T15:45:15+02:00</time>
      </trkpt>
      <trkpt lat="50.21106" lon="3.9629">
        <ele>171</ele>
        <time>2012-09-12T15:45:17+02:00</time>
      </trkpt>
      <trkpt lat="50.21095" lon="3.96291">
        <ele>171</ele>
        <time>2012-09-12T15:45:18+02:00</time>
      </trkpt>
      <trkpt lat="50.21082" lon="3.96294">
        <ele>172</ele>
        <time>2012-09-12T15:45:20+02:00</time>
      </trkpt>
      <trkpt lat="50.21069" lon="3.96295">
        <ele>172</ele>
        <time>2012-09-12T15:45:21+02:00</time>
      </trkpt>
      <trkpt lat="50.21054" lon="3.96297">
        <ele>173</ele>
        <time>2012-09-12T15:45:22+02:00</time>
      </trkpt>
      <trkpt lat="50.21042" lon="3.96299">
        <ele>173</ele>
        <time>2012-09-12T15:45:23+02:00</time>
      </trkpt>
      <trkpt lat="50.21029" lon="3.963">
        <ele>173</ele>
        <time>2012-09-12T15:45:24+02:00</time>
      </trkpt>
      <trkpt lat="50.21018" lon="3.96299">
        <ele>174</ele>
        <time>2012-09-12T15:45:25+02:00</time>
      </trkpt>
      <trkpt lat="50.21008" lon="3.96302">
        <ele>174</ele>
        <time>2012-09-12T15:45:26+02:00</time>
      </trkpt>
      <trkpt lat="50.20994" lon="3.96303">
        <ele>175</ele>
        <time>2012-09-12T15:45:27+02:00</time>
      </trkpt>
      <trkpt lat="50.20979" lon="3.96305">
        <ele>175</ele>
        <time>2012-09-12T15:45:28+02:00</time>
      </trkpt>
      <trkpt lat="50.20964" lon="3.96307">
        <ele>176</ele>
        <time>2012-09-12T15:45:29+02:00</time>
      </trkpt>
      <trkpt lat="50.20953" lon="3.96307">
        <ele>176</ele>
        <time>2012-09-12T15:45:30+02:00</time>
      </trkpt>
      <trkpt lat="50.20941" lon="3.96306">
        <ele>176</ele>
        <time>2012-09-12T15:45:31+02:00</time>
      </trkpt>
      <trkpt lat="50.20928" lon="3.96309">
        <ele>177</ele>
        <time>2012-09-12T15:45:32+02:00</time>
      </trkpt>
      <trkpt lat="50.20915" lon="3.96314">
        <ele>177</ele>
        <time>2012-09-12T15:45:33+02:00</time>
      </trkpt>
      <trkpt lat="50.20898" lon="3.96314">
        <ele>177</ele>
        <time>2012-09-12T15:45:34+02:00</time>
      </trkpt>
      <trkpt lat="50.2088" lon="3.96316">
        <ele>178</ele>
        <time>2012-09-12T15:45:35+02:00</time>
      </trkpt>
      <trkpt lat="50.20864" lon="3.96317">
        <ele>178</ele>
        <time>2012-09-12T15:45:36+02:00</time>
      </trkpt>
      <trkpt lat="50.20848" lon="3.96318">
        <ele>178</ele>
        <time>2012-09-12T15:45:37+02:00</time>
      </trkpt>
      <trkpt lat="50.20836" lon="3.96318">
        <ele>178</ele>
        <time>2012-09-12T15:45:38+02:00</time>
      </trkpt>
      <trkpt lat="50.20823" lon="3.96321">
        <ele>179</ele>
        <time>2012-09-12T15:45:39+02:00</time>
      </trkpt>
      <trkpt lat="50.20809" lon="3.96327">
        <ele>179</ele>
        <time>2012-09-12T15:45:40+02:00</time>
      </trkpt>
      <trkpt lat="50.20796" lon="3.96326">
        <ele>179</ele>
        <time>2012-09-12T15:45:41+02:00</time>
      </trkpt>
      <trkpt lat="50.20784" lon="3.96327">
        <ele>180</ele>
        <time>2012-09-12T15:45:42+02:00</time>
      </trkpt>
      <trkpt lat="50.20771" lon="3.96329">
        <ele>180</ele>
        <time>2012-09-12T15:45:43+02:00</time>
      </trkpt>
      <trkpt lat="50.20758" lon="3.96329">
        <ele>181</ele>
        <time>2012-09-12T15:45:44+02:00</time>
      </trkpt>
      <trkpt lat="50.20743" lon="3.96327">
        <ele>181</ele>
        <time>2012-09-12T15:45:45+02:00</time>
      </trkpt>
      <trkpt lat="50.20721" lon="3.9633">
        <ele>182</ele>
        <time>2012-09-12T15:45:46+02:00</time>
      </trkpt>
      <trkpt lat="50.20707" lon="3.9633">
        <ele>182</ele>
        <time>2012-09-12T15:45:47+02:00</time>
      </trkpt>
      <trkpt lat="50.20695" lon="3.96328">
        <ele>182</ele>
        <time>2012-09-12T15:45:48+02:00</time>
      </trkpt>
      <trkpt lat="50.20676" lon="3.96327">
        <ele>183</ele>
        <time>2012-09-12T15:45:49+02:00</time>
      </trkpt>
      <trkpt lat="50.20663" lon="3.96324">
        <ele>183</ele>
        <time>2012-09-12T15:45:50+02:00</time>
      </trkpt>
      <trkpt lat="50.20646" lon="3.96327">
        <ele>183</ele>
        <time>2012-09-12T15:45:51+02:00</time>
      </trkpt>
      <trkpt lat="50.20632" lon="3.96326">
        <ele>183</ele>
        <time>2021-11-11T11:27:09+01:00</time>
      </trkpt>
      <trkpt lat="50.20624" lon="3.96328">
        <ele>183</ele>
        <time>2012-09-12T15:45:52+02:00</time>
      </trkpt>
      <trkpt lat="50.20616" lon="3.96326">
        <ele>183</ele>
        <time>2012-09-12T15:45:53+02:00</time>
      </trkpt>
      <trkpt lat="50.20606" lon="3.96325">
        <ele>183</ele>
        <time>2012-09-12T15:45:54+02:00</time>
      </trkpt>
      <trkpt lat="50.20596" lon="3.96327">
        <ele>183</ele>
        <time>2012-09-12T15:45:55+02:00</time>
      </trkpt>
      <trkpt lat="50.20586" lon="3.96326">
        <ele>183</ele>
        <time>2012-09-12T15:45:56+02:00</time>
      </trkpt>
      <trkpt lat="50.20577" lon="3.96324">
        <ele>183</ele>
        <time>2012-09-12T15:45:57+02:00</time>
      </trkpt>
      <trkpt lat="50.20567" lon="3.96323">
        <ele>183</ele>
        <time>2012-09-12T15:45:58+02:00</time>
      </trkpt>
      <trkpt lat="50.20549" lon="3.9632">
        <ele>183</ele>
        <time>2012-09-12T15:46:00+02:00</time>
      </trkpt>
      <trkpt lat="50.20531" lon="3.96319">
        <ele>184</ele>
        <time>2012-09-12T15:46:02+02:00</time>
      </trkpt>
      <trkpt lat="50.20513" lon="3.96318">
        <ele>184</ele>
        <time>2012-09-12T15:46:04+02:00</time>
      </trkpt>
      <trkpt lat="50.20495" lon="3.96319">
        <ele>184</ele>
        <time>2012-09-12T15:46:06+02:00</time>
      </trkpt>
      <trkpt lat="50.20477" lon="3.96321">
        <ele>185</ele>
        <time>2012-09-12T15:46:08+02:00</time>
      </trkpt>
      <trkpt lat="50.20459" lon="3.96322">
        <ele>185</ele>
        <time>2012-09-12T15:46:10+02:00</time>
      </trkpt>
      <trkpt lat="50.2045" lon="3.96322">
        <ele>185</ele>
        <time>2012-09-12T15:46:11+02:00</time>
      </trkpt>
      <trkpt lat="50.20432" lon="3.9632">
        <ele>186</ele>
        <time>2012-09-12T15:46:13+02:00</time>
      </trkpt>
      <trkpt lat="50.20413" lon="3.96316">
        <ele>186</ele>
        <time>2012-09-12T15:46:15+02:00</time>
      </trkpt>
      <trkpt lat="50.20394" lon="3.96309">
        <ele>186</ele>
        <time>2012-09-12T15:46:17+02:00</time>
      </trkpt>
      <trkpt lat="50.20384" lon="3.96304">
        <ele>186</ele>
        <time>2012-09-12T15:46:18+02:00</time>
      </trkpt>
      <trkpt lat="50.20375" lon="3.96299">
        <ele>186</ele>
        <time>2012-09-12T15:46:19+02:00</time>
      </trkpt>
      <trkpt lat="50.20365" lon="3.96294">
        <ele>186</ele>
        <time>2012-09-12T15:46:20+02:00</time>
      </trkpt>
      <trkpt lat="50.20356" lon="3.96289">
        <ele>186</ele>
        <time>2012-09-12T15:46:21+02:00</time>
      </trkpt>
      <trkpt lat="50.20346" lon="3.96285">
        <ele>186</ele>
        <time>2012-09-12T15:46:22+02:00</time>
      </trkpt>
      <trkpt lat="50.20337" lon="3.9628">
        <ele>186</ele>
        <time>2012-09-12T15:46:23+02:00</time>
      </trkpt>
      <trkpt lat="50.20327" lon="3.96276">
        <ele>186</ele>
        <time>2012-09-12T15:46:24+02:00</time>
      </trkpt>
      <trkpt lat="50.20318" lon="3.96272">
        <ele>186</ele>
        <time>2012-09-12T15:46:25+02:00</time>
      </trkpt>
      <trkpt lat="50.20308" lon="3.96269">
        <ele>187</ele>
        <time>2012-09-12T15:46:26+02:00</time>
      </trkpt>
      <trkpt lat="50.20298" lon="3.96265">
        <ele>187</ele>
        <time>2012-09-12T15:46:27+02:00</time>
      </trkpt>
      <trkpt lat="50.20289" lon="3.96261">
        <ele>187</ele>
        <time>2012-09-12T15:46:28+02:00</time>
      </trkpt>
      <trkpt lat="50.2028" lon="3.96257">
        <ele>187</ele>
        <time>2012-09-12T15:46:29+02:00</time>
      </trkpt>
      <trkpt lat="50.20261" lon="3.96248">
        <ele>188</ele>
        <time>2012-09-12T15:46:31+02:00</time>
      </trkpt>
      <trkpt lat="50.20251" lon="3.96243">
        <ele>188</ele>
        <time>2012-09-12T15:46:32+02:00</time>
      </trkpt>
      <trkpt lat="50.20241" lon="3.96238">
        <ele>188</ele>
        <time>2012-09-12T15:46:33+02:00</time>
      </trkpt>
      <trkpt lat="50.20231" lon="3.96233">
        <ele>188</ele>
        <time>2012-09-12T15:46:34+02:00</time>
      </trkpt>
      <trkpt lat="50.2022" lon="3.96228">
        <ele>188</ele>
        <time>2012-09-12T15:46:35+02:00</time>
      </trkpt>
      <trkpt lat="50.20209" lon="3.96224">
        <ele>188</ele>
        <time>2012-09-12T15:46:36+02:00</time>
      </trkpt>
      <trkpt lat="50.20198" lon="3.9622">
        <ele>188</ele>
        <time>2012-09-12T15:46:37+02:00</time>
      </trkpt>
      <trkpt lat="50.20188" lon="3.96215">
        <ele>188</ele>
        <time>2012-09-12T15:46:38+02:00</time>
      </trkpt>
      <trkpt lat="50.20178" lon="3.9621">
        <ele>188</ele>
        <time>2012-09-12T15:46:39+02:00</time>
      </trkpt>
      <trkpt lat="50.20168" lon="3.96206">
        <ele>188</ele>
        <time>2012-09-12T15:46:40+02:00</time>
      </trkpt>
      <trkpt lat="50.20158" lon="3.96201">
        <ele>188</ele>
        <time>2012-09-12T15:46:41+02:00</time>
      </trkpt>
      <trkpt lat="50.20148" lon="3.96197">
        <ele>188</ele>
        <time>2012-09-12T15:46:42+02:00</time>
      </trkpt>
      <trkpt lat="50.20139" lon="3.96192">
        <ele>188</ele>
        <time>2012-09-12T15:46:43+02:00</time>
      </trkpt>
      <trkpt lat="50.20122" lon="3.96184">
        <ele>188</ele>
        <time>2012-09-12T15:46:45+02:00</time>
      </trkpt>
      <trkpt lat="50.2011" lon="3.96179">
        <ele>189</ele>
        <time>2012-09-12T15:46:47+02:00</time>
      </trkpt>
      <trkpt lat="50.20102" lon="3.96175">
        <ele>189</ele>
        <time>2012-09-12T15:46:49+02:00</time>
      </trkpt>
      <trkpt lat="50.20092" lon="3.9617">
        <ele>189</ele>
        <time>2012-09-12T15:46:51+02:00</time>
      </trkpt>
      <trkpt lat="50.20082" lon="3.96165">
        <ele>189</ele>
        <time>2012-09-12T15:46:53+02:00</time>
      </trkpt>
      <trkpt lat="50.20071" lon="3.9616">
        <ele>190</ele>
        <time>2012-09-12T15:46:55+02:00</time>
      </trkpt>
      <trkpt lat="50.20059" lon="3.96156">
        <ele>190</ele>
        <time>2012-09-12T15:46:57+02:00</time>
      </trkpt>
      <trkpt lat="50.20046" lon="3.96152">
        <ele>191</ele>
        <time>2012-09-12T15:46:59+02:00</time>
      </trkpt>
      <trkpt lat="50.20031" lon="3.96145">
        <ele>192</ele>
        <time>2012-09-12T15:47:01+02:00</time>
      </trkpt>
      <trkpt lat="50.20016" lon="3.96138">
        <ele>192</ele>
        <time>2012-09-12T15:47:03+02:00</time>
      </trkpt>
      <trkpt lat="50.20001" lon="3.96132">
        <ele>193</ele>
        <time>2012-09-12T15:47:05+02:00</time>
      </trkpt>
      <trkpt lat="50.19987" lon="3.96125">
        <ele>194</ele>
        <time>2012-09-12T15:47:07+02:00</time>
      </trkpt>
      <trkpt lat="50.19973" lon="3.96118">
        <ele>195</ele>
        <time>2012-09-12T15:47:09+02:00</time>
      </trkpt>
      <trkpt lat="50.19958" lon="3.96111">
        <ele>196</ele>
        <time>2012-09-12T15:47:11+02:00</time>
      </trkpt>
      <trkpt lat="50.19944" lon="3.96104">
        <ele>196</ele>
        <time>2012-09-12T15:47:13+02:00</time>
      </trkpt>
      <trkpt lat="50.1993" lon="3.96099">
        <ele>197</ele>
        <time>2012-09-12T15:47:15+02:00</time>
      </trkpt>
      <trkpt lat="50.19917" lon="3.96095">
        <ele>197</ele>
        <time>2012-09-12T15:47:17+02:00</time>
      </trkpt>
      <trkpt lat="50.19909" lon="3.96088">
        <ele>198</ele>
        <time>2012-09-12T15:47:19+02:00</time>
      </trkpt>
      <trkpt lat="50.19908" lon="3.961">
        <ele>198</ele>
        <time>2012-09-12T15:47:21+02:00</time>
      </trkpt>
      <trkpt lat="50.19908" lon="3.96111">
        <ele>199</ele>
        <time>2012-09-12T15:47:23+02:00</time>
      </trkpt>
      <trkpt lat="50.19908" lon="3.96115">
        <ele>199</ele>
        <time>2012-09-12T15:47:25+02:00</time>
      </trkpt>
      <trkpt lat="50.19909" lon="3.96122">
        <ele>199</ele>
        <time>2012-09-12T15:47:37+02:00</time>
      </trkpt>
      <trkpt lat="50.19907" lon="3.96126">
        <ele>200</ele>
        <time>2012-09-12T15:48:21+02:00</time>
      </trkpt>
      <trkpt lat="50.19909" lon="3.96136">
        <ele>200</ele>
        <time>2012-09-12T15:48:23+02:00</time>
      </trkpt>
      <trkpt lat="50.19909" lon="3.96144">
        <ele>201</ele>
        <time>2012-09-12T15:48:25+02:00</time>
      </trkpt>
      <trkpt lat="50.19911" lon="3.96153">
        <ele>201</ele>
        <time>2012-09-12T15:48:27+02:00</time>
      </trkpt>
      <trkpt lat="50.19914" lon="3.96171">
        <ele>201</ele>
        <time>2012-09-12T15:48:29+02:00</time>
      </trkpt>
      <trkpt lat="50.19914" lon="3.96187">
        <ele>202</ele>
        <time>2012-09-12T15:48:31+02:00</time>
      </trkpt>
      <trkpt lat="50.19916" lon="3.96201">
        <ele>202</ele>
        <time>2012-09-12T15:48:33+02:00</time>
      </trkpt>
      <trkpt lat="50.1992" lon="3.96224">
        <ele>203</ele>
        <time>2012-09-12T15:48:35+02:00</time>
      </trkpt>
      <trkpt lat="50.19922" lon="3.96247">
        <ele>203</ele>
        <time>2012-09-12T15:48:37+02:00</time>
      </trkpt>
      <trkpt lat="50.19922" lon="3.96262">
        <ele>203</ele>
        <time>2012-09-12T15:48:39+02:00</time>
      </trkpt>
      <trkpt lat="50.19926" lon="3.96281">
        <ele>203</ele>
        <time>2012-09-12T15:48:41+02:00</time>
      </trkpt>
      <trkpt lat="50.19928" lon="3.96302">
        <ele>202</ele>
        <time>2012-09-12T15:48:43+02:00</time>
      </trkpt>
      <trkpt lat="50.1993" lon="3.96323">
        <ele>202</ele>
        <time>2012-09-12T15:48:45+02:00</time>
      </trkpt>
      <trkpt lat="50.19932" lon="3.96337">
        <ele>202</ele>
        <time>2012-09-12T15:48:47+02:00</time>
      </trkpt>
      <trkpt lat="50.19935" lon="3.96356">
        <ele>201</ele>
        <time>2012-09-12T15:48:49+02:00</time>
      </trkpt>
      <trkpt lat="50.19938" lon="3.96376">
        <ele>200</ele>
        <time>2012-09-12T15:48:51+02:00</time>
      </trkpt>
      <trkpt lat="50.1994" lon="3.9639">
        <ele>200</ele>
        <time>2012-09-12T15:48:53+02:00</time>
      </trkpt>
      <trkpt lat="50.19944" lon="3.9641">
        <ele>199</ele>
        <time>2012-09-12T15:48:56+02:00</time>
      </trkpt>
      <trkpt lat="50.19947" lon="3.96433">
        <ele>199</ele>
        <time>2012-09-12T15:48:59+02:00</time>
      </trkpt>
      <trkpt lat="50.19951" lon="3.96449">
        <ele>199</ele>
        <time>2012-09-12T15:49:01+02:00</time>
      </trkpt>
      <trkpt lat="50.19949" lon="3.96464">
        <ele>199</ele>
        <time>2012-09-12T15:49:03+02:00</time>
      </trkpt>
      <trkpt lat="50.19951" lon="3.96481">
        <ele>198</ele>
        <time>2012-09-12T15:49:06+02:00</time>
      </trkpt>
      <trkpt lat="50.19951" lon="3.96496">
        <ele>198</ele>
        <time>2012-09-12T15:49:12+02:00</time>
      </trkpt>
      <trkpt lat="50.1995" lon="3.96512">
        <ele>198</ele>
        <time>2012-09-12T15:50:40+02:00</time>
      </trkpt>
      <trkpt lat="50.19951" lon="3.96525">
        <ele>198</ele>
        <time>2012-09-12T15:50:43+02:00</time>
      </trkpt>
      <trkpt lat="50.19949" lon="3.96542">
        <ele>198</ele>
        <time>2012-09-12T15:50:46+02:00</time>
      </trkpt>
      <trkpt lat="50.19949" lon="3.96557">
        <ele>198</ele>
        <time>2012-09-12T15:50:48+02:00</time>
      </trkpt>
      <trkpt lat="50.1995" lon="3.96577">
        <ele>198</ele>
        <time>2012-09-12T15:50:50+02:00</time>
      </trkpt>
      <trkpt lat="50.19952" lon="3.96593">
        <ele>198</ele>
        <time>2012-09-12T15:50:52+02:00</time>
      </trkpt>
      <trkpt lat="50.19949" lon="3.96612">
        <ele>198</ele>
        <time>2012-09-12T15:50:55+02:00</time>
      </trkpt>
      <trkpt lat="50.19951" lon="3.96631">
        <ele>198</ele>
        <time>2012-09-12T15:50:58+02:00</time>
      </trkpt>
      <trkpt lat="50.1995" lon="3.96652">
        <ele>198</ele>
        <time>2012-09-12T15:51:00+02:00</time>
      </trkpt>
      <trkpt lat="50.19949" lon="3.96669">
        <ele>198</ele>
        <time>2012-09-12T15:51:02+02:00</time>
      </trkpt>
      <trkpt lat="50.19946" lon="3.96684">
        <ele>199</ele>
        <time>2012-09-12T15:51:04+02:00</time>
      </trkpt>
      <trkpt lat="50.19949" lon="3.967">
        <ele>199</ele>
        <time>2012-09-12T15:51:06+02:00</time>
      </trkpt>
      <trkpt lat="50.19944" lon="3.96717">
        <ele>199</ele>
        <time>2012-09-12T15:51:08+02:00</time>
      </trkpt>
      <trkpt lat="50.19944" lon="3.96736">
        <ele>199</ele>
        <time>2012-09-12T15:51:10+02:00</time>
      </trkpt>
      <trkpt lat="50.19946" lon="3.96757">
        <ele>200</ele>
        <time>2012-09-12T15:51:12+02:00</time>
      </trkpt>
      <trkpt lat="50.19945" lon="3.96773">
        <ele>200</ele>
        <time>2012-09-12T15:51:14+02:00</time>
      </trkpt>
      <trkpt lat="50.19943" lon="3.96791">
        <ele>200</ele>
        <time>2012-09-12T15:51:16+02:00</time>
      </trkpt>
      <trkpt lat="50.19943" lon="3.96806">
        <ele>200</ele>
        <time>2012-09-12T15:51:18+02:00</time>
      </trkpt>
      <trkpt lat="50.19944" lon="3.96824">
        <ele>201</ele>
        <time>2012-09-12T15:51:21+02:00</time>
      </trkpt>
      <trkpt lat="50.19941" lon="3.96835">
        <ele>201</ele>
        <time>2012-09-12T15:51:24+02:00</time>
      </trkpt>
      <trkpt lat="50.1994" lon="3.96853">
        <ele>201</ele>
        <time>2012-09-12T15:51:28+02:00</time>
      </trkpt>
      <trkpt lat="50.19938" lon="3.96879">
        <ele>203</ele>
        <time>2012-09-12T15:51:31+02:00</time>
      </trkpt>
      <trkpt lat="50.19938" lon="3.96903">
        <ele>203</ele>
        <time>2012-09-12T15:51:34+02:00</time>
      </trkpt>
      <trkpt lat="50.19936" lon="3.96918">
        <ele>204</ele>
        <time>2012-09-12T15:51:37+02:00</time>
      </trkpt>
      <trkpt lat="50.19937" lon="3.96934">
        <ele>205</ele>
        <time>2012-09-12T15:51:40+02:00</time>
      </trkpt>
      <trkpt lat="50.19935" lon="3.96952">
        <ele>206</ele>
        <time>2012-09-12T15:51:43+02:00</time>
      </trkpt>
      <trkpt lat="50.19938" lon="3.96968">
        <ele>206</ele>
        <time>2012-09-12T15:51:46+02:00</time>
      </trkpt>
      <trkpt lat="50.19935" lon="3.96983">
        <ele>207</ele>
        <time>2012-09-12T15:51:50+02:00</time>
      </trkpt>
      <trkpt lat="50.19933" lon="3.96999">
        <ele>208</ele>
        <time>2012-09-12T15:51:54+02:00</time>
      </trkpt>
      <trkpt lat="50.19933" lon="3.97015">
        <ele>208</ele>
        <time>2012-09-12T15:51:57+02:00</time>
      </trkpt>
      <trkpt lat="50.19933" lon="3.97033">
        <ele>208</ele>
        <time>2012-09-12T15:52:00+02:00</time>
      </trkpt>
      <trkpt lat="50.19933" lon="3.97051">
        <ele>209</ele>
        <time>2012-09-12T15:52:03+02:00</time>
      </trkpt>
      <trkpt lat="50.19932" lon="3.97066">
        <ele>209</ele>
        <time>2012-09-12T15:52:08+02:00</time>
      </trkpt>
      <trkpt lat="50.19931" lon="3.9708">
        <ele>209</ele>
        <time>2012-09-12T15:52:12+02:00</time>
      </trkpt>
      <trkpt lat="50.19932" lon="3.97097">
        <ele>209</ele>
        <time>2012-09-12T15:52:16+02:00</time>
      </trkpt>
      <trkpt lat="50.19933" lon="3.97112">
        <ele>208</ele>
        <time>2012-09-12T15:52:19+02:00</time>
      </trkpt>
      <trkpt lat="50.19933" lon="3.97129">
        <ele>208</ele>
        <time>2012-09-12T15:52:22+02:00</time>
      </trkpt>
      <trkpt lat="50.19933" lon="3.97146">
        <ele>207</ele>
        <time>2012-09-12T15:52:25+02:00</time>
      </trkpt>
      <trkpt lat="50.19933" lon="3.97165">
        <ele>207</ele>
        <time>2012-09-12T15:52:28+02:00</time>
      </trkpt>
      <trkpt lat="50.19934" lon="3.97178">
        <ele>207</ele>
        <time>2012-09-12T15:52:32+02:00</time>
      </trkpt>
      <trkpt lat="50.19935" lon="3.97192">
        <ele>207</ele>
        <time>2012-09-12T15:52:36+02:00</time>
      </trkpt>
      <trkpt lat="50.19935" lon="3.97205">
        <ele>207</ele>
        <time>2012-09-12T15:52:40+02:00</time>
      </trkpt>
      <trkpt lat="50.19935" lon="3.97224">
        <ele>208</ele>
        <time>2012-09-12T15:52:43+02:00</time>
      </trkpt>
      <trkpt lat="50.19935" lon="3.97243">
        <ele>208</ele>
        <time>2012-09-12T15:52:46+02:00</time>
      </trkpt>
      <trkpt lat="50.19936" lon="3.97256">
        <ele>208</ele>
        <time>2012-09-12T15:52:49+02:00</time>
      </trkpt>
      <trkpt lat="50.19938" lon="3.97273">
        <ele>208</ele>
        <time>2012-09-12T15:52:53+02:00</time>
      </trkpt>
      <trkpt lat="50.19938" lon="3.97289">
        <ele>208</ele>
        <time>2012-09-12T15:52:58+02:00</time>
      </trkpt>
      <trkpt lat="50.1994" lon="3.97304">
        <ele>208</ele>
        <time>2012-09-12T15:53:02+02:00</time>
      </trkpt>
      <trkpt lat="50.19939" lon="3.97318">
        <ele>208</ele>
        <time>2012-09-12T15:53:06+02:00</time>
      </trkpt>
      <trkpt lat="50.19941" lon="3.9733">
        <ele>208</ele>
        <time>2012-09-12T15:53:11+02:00</time>
      </trkpt>
      <trkpt lat="50.19942" lon="3.97343">
        <ele>208</ele>
        <time>2012-09-12T15:53:15+02:00</time>
      </trkpt>
      <trkpt lat="50.19942" lon="3.97354">
        <ele>208</ele>
        <time>2012-09-12T15:53:19+02:00</time>
      </trkpt>
      <trkpt lat="50.19942" lon="3.97367">
        <ele>208</ele>
        <time>2012-09-12T15:53:23+02:00</time>
      </trkpt>
      <trkpt lat="50.19943" lon="3.9738">
        <ele>208</ele>
        <time>2012-09-12T15:53:27+02:00</time>
      </trkpt>
      <trkpt lat="50.19944" lon="3.97393">
        <ele>208</ele>
        <time>2012-09-12T15:53:31+02:00</time>
      </trkpt>
      <trkpt lat="50.19944" lon="3.97404">
        <ele>208</ele>
        <time>2012-09-12T15:53:37+02:00</time>
      </trkpt>
      <trkpt lat="50.19946" lon="3.97417">
        <ele>208</ele>
        <time>2012-09-12T15:53:57+02:00</time>
      </trkpt>
      <trkpt lat="50.19946" lon="3.97432">
        <ele>207</ele>
        <time>2012-09-12T15:54:10+02:00</time>
      </trkpt>
      <trkpt lat="50.19946" lon="3.97446">
        <ele>207</ele>
        <time>2012-09-12T15:54:17+02:00</time>
      </trkpt>
      <trkpt lat="50.19951" lon="3.97453">
        <ele>207</ele>
        <time>2012-09-12T15:54:27+02:00</time>
      </trkpt>
      <trkpt lat="50.19951" lon="3.97462">
        <ele>207</ele>
        <time>2012-09-12T15:54:54+02:00</time>
      </trkpt>
      <trkpt lat="50.19949" lon="3.97475">
        <ele>207</ele>
        <time>2012-09-12T15:55:06+02:00</time>
      </trkpt>
      <trkpt lat="50.1995" lon="3.97486">
        <ele>207</ele>
        <time>2012-09-12T15:55:24+02:00</time>
      </trkpt>
      <trkpt lat="50.1995" lon="3.97499">
        <ele>207</ele>
        <time>2012-09-12T15:55:30+02:00</time>
      </trkpt>
      <trkpt lat="50.19953" lon="3.97512">
        <ele>207</ele>
        <time>2012-09-12T15:55:35+02:00</time>
      </trkpt>
      <trkpt lat="50.19953" lon="3.97528">
        <ele>207</ele>
        <time>2012-09-12T15:55:40+02:00</time>
      </trkpt>
      <trkpt lat="50.19956" lon="3.97544">
        <ele>208</ele>
        <time>2012-09-12T15:55:46+02:00</time>
      </trkpt>
      <trkpt lat="50.19959" lon="3.97559">
        <ele>208</ele>
        <time>2012-09-12T15:55:52+02:00</time>
      </trkpt>
      <trkpt lat="50.19957" lon="3.97578">
        <ele>208</ele>
        <time>2012-09-12T15:55:58+02:00</time>
      </trkpt>
      <trkpt lat="50.1996" lon="3.97595">
        <ele>208</ele>
        <time>2012-09-12T15:56:03+02:00</time>
      </trkpt>
      <trkpt lat="50.19961" lon="3.97612">
        <ele>208</ele>
        <time>2012-09-12T15:56:08+02:00</time>
      </trkpt>
      <trkpt lat="50.19963" lon="3.97626">
        <ele>208</ele>
        <time>2012-09-12T15:56:13+02:00</time>
      </trkpt>
      <trkpt lat="50.19965" lon="3.97641">
        <ele>208</ele>
        <time>2012-09-12T15:56:19+02:00</time>
      </trkpt>
      <trkpt lat="50.19966" lon="3.97656">
        <ele>208</ele>
        <time>2012-09-12T15:56:25+02:00</time>
      </trkpt>
      <trkpt lat="50.19969" lon="3.97672">
        <ele>207</ele>
        <time>2012-09-12T15:56:31+02:00</time>
      </trkpt>
      <trkpt lat="50.19973" lon="3.97688">
        <ele>208</ele>
        <time>2012-09-12T15:56:36+02:00</time>
      </trkpt>
      <trkpt lat="50.19974" lon="3.97704">
        <ele>208</ele>
        <time>2012-09-12T15:56:41+02:00</time>
      </trkpt>
      <trkpt lat="50.19981" lon="3.97721">
        <ele>208</ele>
        <time>2012-09-12T15:56:46+02:00</time>
      </trkpt>
      <trkpt lat="50.19985" lon="3.97733">
        <ele>208</ele>
        <time>2012-09-12T15:56:51+02:00</time>
      </trkpt>
      <trkpt lat="50.1999" lon="3.97752">
        <ele>208</ele>
        <time>2012-09-12T15:56:56+02:00</time>
      </trkpt>
      <trkpt lat="50.19992" lon="3.97766">
        <ele>208</ele>
        <time>2012-09-12T15:57:01+02:00</time>
      </trkpt>
      <trkpt lat="50.19995" lon="3.9778">
        <ele>208</ele>
        <time>2012-09-12T15:57:06+02:00</time>
      </trkpt>
      <trkpt lat="50.19999" lon="3.97798">
        <ele>208</ele>
        <time>2012-09-12T15:57:10+02:00</time>
      </trkpt>
      <trkpt lat="50.20002" lon="3.97814">
        <ele>208</ele>
        <time>2012-09-12T15:57:14+02:00</time>
      </trkpt>
      <trkpt lat="50.20009" lon="3.97818">
        <ele>207</ele>
        <time>2012-09-12T15:57:18+02:00</time>
      </trkpt>
      <trkpt lat="50.20009" lon="3.97831">
        <ele>207</ele>
        <time>2012-09-12T15:58:50+02:00</time>
      </trkpt>
      <trkpt lat="50.2004" lon="3.97838">
        <ele>205</ele>
        <time>2012-09-12T15:58:54+02:00</time>
      </trkpt>
      <trkpt lat="50.20051" lon="3.9784">
        <ele>204</ele>
        <time>2012-09-12T15:58:57+02:00</time>
      </trkpt>
      <trkpt lat="50.20067" lon="3.97845">
        <ele>203</ele>
        <time>2012-09-12T15:58:59+02:00</time>
      </trkpt>
      <trkpt lat="50.20078" lon="3.97849">
        <ele>202</ele>
        <time>2012-09-12T15:59:01+02:00</time>
      </trkpt>
      <trkpt lat="50.2009" lon="3.97854">
        <ele>201</ele>
        <time>2012-09-12T15:59:03+02:00</time>
      </trkpt>
      <trkpt lat="50.20104" lon="3.97861">
        <ele>201</ele>
        <time>2012-09-12T15:59:05+02:00</time>
      </trkpt>
      <trkpt lat="50.20117" lon="3.97867">
        <ele>201</ele>
        <time>2012-09-12T15:59:07+02:00</time>
      </trkpt>
      <trkpt lat="50.20131" lon="3.97872">
        <ele>201</ele>
        <time>2012-09-12T15:59:09+02:00</time>
      </trkpt>
      <trkpt lat="50.20144" lon="3.97877">
        <ele>201</ele>
        <time>2012-09-12T15:59:11+02:00</time>
      </trkpt>
      <trkpt lat="50.20158" lon="3.9788">
        <ele>200</ele>
        <time>2012-09-12T15:59:13+02:00</time>
      </trkpt>
      <trkpt lat="50.20171" lon="3.97881">
        <ele>200</ele>
        <time>2012-09-12T15:59:15+02:00</time>
      </trkpt>
      <trkpt lat="50.20186" lon="3.97882">
        <ele>200</ele>
        <time>2012-09-12T15:59:17+02:00</time>
      </trkpt>
      <trkpt lat="50.202" lon="3.97883">
        <ele>200</ele>
        <time>2012-09-12T15:59:19+02:00</time>
      </trkpt>
      <trkpt lat="50.20214" lon="3.97887">
        <ele>199</ele>
        <time>2012-09-12T15:59:21+02:00</time>
      </trkpt>
      <trkpt lat="50.20226" lon="3.97895">
        <ele>199</ele>
        <time>2012-09-12T15:59:23+02:00</time>
      </trkpt>
      <trkpt lat="50.20237" lon="3.97905">
        <ele>198</ele>
        <time>2012-09-12T15:59:25+02:00</time>
      </trkpt>
      <trkpt lat="50.20247" lon="3.97918">
        <ele>198</ele>
        <time>2012-09-12T15:59:27+02:00</time>
      </trkpt>
      <trkpt lat="50.20258" lon="3.97931">
        <ele>198</ele>
        <time>2012-09-12T15:59:29+02:00</time>
      </trkpt>
      <trkpt lat="50.20268" lon="3.97945">
        <ele>197</ele>
        <time>2012-09-12T15:59:31+02:00</time>
      </trkpt>
      <trkpt lat="50.2028" lon="3.97961">
        <ele>197</ele>
        <time>2012-09-12T15:59:33+02:00</time>
      </trkpt>
      <trkpt lat="50.20292" lon="3.97976">
        <ele>197</ele>
        <time>2012-09-12T15:59:35+02:00</time>
      </trkpt>
      <trkpt lat="50.20303" lon="3.97992">
        <ele>196</ele>
        <time>2012-09-12T15:59:37+02:00</time>
      </trkpt>
      <trkpt lat="50.20316" lon="3.98009">
        <ele>196</ele>
        <time>2012-09-12T15:59:39+02:00</time>
      </trkpt>
      <trkpt lat="50.2033" lon="3.98024">
        <ele>196</ele>
        <time>2012-09-12T15:59:41+02:00</time>
      </trkpt>
      <trkpt lat="50.20343" lon="3.98036">
        <ele>195</ele>
        <time>2012-09-12T15:59:43+02:00</time>
      </trkpt>
      <trkpt lat="50.20358" lon="3.98044">
        <ele>195</ele>
        <time>2012-09-12T15:59:45+02:00</time>
      </trkpt>
      <trkpt lat="50.20374" lon="3.98045">
        <ele>195</ele>
        <time>2012-09-12T15:59:47+02:00</time>
      </trkpt>
      <trkpt lat="50.2039" lon="3.98045">
        <ele>195</ele>
        <time>2012-09-12T15:59:49+02:00</time>
      </trkpt>
      <trkpt lat="50.20407" lon="3.98042">
        <ele>195</ele>
        <time>2012-09-12T15:59:51+02:00</time>
      </trkpt>
      <trkpt lat="50.20424" lon="3.98042">
        <ele>195</ele>
        <time>2012-09-12T15:59:53+02:00</time>
      </trkpt>
      <trkpt lat="50.20439" lon="3.98047">
        <ele>194</ele>
        <time>2012-09-12T15:59:55+02:00</time>
      </trkpt>
      <trkpt lat="50.20453" lon="3.98059">
        <ele>194</ele>
        <time>2012-09-12T15:59:57+02:00</time>
      </trkpt>
      <trkpt lat="50.20466" lon="3.98077">
        <ele>194</ele>
        <time>2012-09-12T15:59:59+02:00</time>
      </trkpt>
      <trkpt lat="50.20479" lon="3.98098">
        <ele>193</ele>
        <time>2012-09-12T16:00:01+02:00</time>
      </trkpt>
      <trkpt lat="50.20486" lon="3.98109">
        <ele>193</ele>
        <time>2012-09-12T16:00:02+02:00</time>
      </trkpt>
      <trkpt lat="50.20493" lon="3.98119">
        <ele>193</ele>
        <time>2012-09-12T16:00:03+02:00</time>
      </trkpt>
      <trkpt lat="50.20501" lon="3.98128">
        <ele>192</ele>
        <time>2012-09-12T16:00:04+02:00</time>
      </trkpt>
      <trkpt lat="50.20509" lon="3.98137">
        <ele>192</ele>
        <time>2012-09-12T16:00:05+02:00</time>
      </trkpt>
      <trkpt lat="50.20517" lon="3.98145">
        <ele>192</ele>
        <time>2012-09-12T16:00:06+02:00</time>
      </trkpt>
      <trkpt lat="50.20532" lon="3.98156">
        <ele>192</ele>
        <time>2012-09-12T16:00:08+02:00</time>
      </trkpt>
      <trkpt lat="50.20544" lon="3.98162">
        <ele>192</ele>
        <time>2012-09-12T16:00:10+02:00</time>
      </trkpt>
      <trkpt lat="50.20555" lon="3.98166">
        <ele>192</ele>
        <time>2012-09-12T16:00:13+02:00</time>
      </trkpt>
      <trkpt lat="50.20565" lon="3.98164">
        <ele>192</ele>
        <time>2012-09-12T16:00:16+02:00</time>
      </trkpt>
      <trkpt lat="50.20579" lon="3.98159">
        <ele>192</ele>
        <time>2012-09-12T16:00:19+02:00</time>
      </trkpt>
      <trkpt lat="50.20593" lon="3.98157">
        <ele>192</ele>
        <time>2012-09-12T16:00:21+02:00</time>
      </trkpt>
      <trkpt lat="50.20611" lon="3.98157">
        <ele>191</ele>
        <time>2012-09-12T16:00:23+02:00</time>
      </trkpt>
      <trkpt lat="50.2062" lon="3.98158">
        <ele>191</ele>
        <time>2012-09-12T16:00:24+02:00</time>
      </trkpt>
      <trkpt lat="50.20631" lon="3.9816">
        <ele>191</ele>
        <time>2012-09-12T16:00:25+02:00</time>
      </trkpt>
      <trkpt lat="50.20642" lon="3.98163">
        <ele>191</ele>
        <time>2012-09-12T16:00:26+02:00</time>
      </trkpt>
      <trkpt lat="50.20654" lon="3.98166">
        <ele>191</ele>
        <time>2012-09-12T16:00:27+02:00</time>
      </trkpt>
      <trkpt lat="50.20665" lon="3.9817">
        <ele>191</ele>
        <time>2012-09-12T16:00:28+02:00</time>
      </trkpt>
      <trkpt lat="50.20676" lon="3.98173">
        <ele>191</ele>
        <time>2012-09-12T16:00:29+02:00</time>
      </trkpt>
      <trkpt lat="50.20688" lon="3.98176">
        <ele>190</ele>
        <time>2012-09-12T16:00:30+02:00</time>
      </trkpt>
      <trkpt lat="50.20699" lon="3.98177">
        <ele>190</ele>
        <time>2012-09-12T16:00:31+02:00</time>
      </trkpt>
      <trkpt lat="50.2071" lon="3.98176">
        <ele>190</ele>
        <time>2012-09-12T16:00:32+02:00</time>
      </trkpt>
      <trkpt lat="50.20723" lon="3.98175">
        <ele>190</ele>
        <time>2012-09-12T16:00:33+02:00</time>
      </trkpt>
      <trkpt lat="50.20734" lon="3.98173">
        <ele>189</ele>
        <time>2012-09-12T16:00:34+02:00</time>
      </trkpt>
      <trkpt lat="50.20745" lon="3.9817">
        <ele>189</ele>
        <time>2012-09-12T16:00:35+02:00</time>
      </trkpt>
      <trkpt lat="50.20756" lon="3.98167">
        <ele>189</ele>
        <time>2012-09-12T16:00:36+02:00</time>
      </trkpt>
      <trkpt lat="50.20767" lon="3.98164">
        <ele>189</ele>
        <time>2012-09-12T16:00:37+02:00</time>
      </trkpt>
      <trkpt lat="50.20778" lon="3.98159">
        <ele>189</ele>
        <time>2012-09-12T16:00:38+02:00</time>
      </trkpt>
      <trkpt lat="50.20791" lon="3.98154">
        <ele>188</ele>
        <time>2012-09-12T16:00:39+02:00</time>
      </trkpt>
      <trkpt lat="50.20803" lon="3.98148">
        <ele>188</ele>
        <time>2012-09-12T16:00:40+02:00</time>
      </trkpt>
      <trkpt lat="50.20815" lon="3.98141">
        <ele>188</ele>
        <time>2012-09-12T16:00:41+02:00</time>
      </trkpt>
      <trkpt lat="50.20826" lon="3.98136">
        <ele>188</ele>
        <time>2012-09-12T16:00:42+02:00</time>
      </trkpt>
      <trkpt lat="50.20838" lon="3.9813">
        <ele>187</ele>
        <time>2012-09-12T16:00:43+02:00</time>
      </trkpt>
      <trkpt lat="50.20849" lon="3.98126">
        <ele>187</ele>
        <time>2012-09-12T16:00:44+02:00</time>
      </trkpt>
      <trkpt lat="50.2086" lon="3.98122">
        <ele>187</ele>
        <time>2012-09-12T16:00:45+02:00</time>
      </trkpt>
      <trkpt lat="50.20869" lon="3.9812">
        <ele>186</ele>
        <time>2012-09-12T16:00:46+02:00</time>
      </trkpt>
      <trkpt lat="50.20879" lon="3.98119">
        <ele>186</ele>
        <time>2012-09-12T16:00:47+02:00</time>
      </trkpt>
      <trkpt lat="50.20889" lon="3.9812">
        <ele>186</ele>
        <time>2012-09-12T16:00:48+02:00</time>
      </trkpt>
      <trkpt lat="50.20897" lon="3.98123">
        <ele>186</ele>
        <time>2012-09-12T16:00:49+02:00</time>
      </trkpt>
      <trkpt lat="50.20906" lon="3.98128">
        <ele>185</ele>
        <time>2012-09-12T16:00:50+02:00</time>
      </trkpt>
      <trkpt lat="50.20915" lon="3.98135">
        <ele>185</ele>
        <time>2012-09-12T16:00:51+02:00</time>
      </trkpt>
      <trkpt lat="50.20924" lon="3.98143">
        <ele>185</ele>
        <time>2012-09-12T16:00:52+02:00</time>
      </trkpt>
      <trkpt lat="50.20934" lon="3.98152">
        <ele>185</ele>
        <time>2012-09-12T16:00:53+02:00</time>
      </trkpt>
      <trkpt lat="50.20944" lon="3.98161">
        <ele>186</ele>
        <time>2012-09-12T16:00:54+02:00</time>
      </trkpt>
      <trkpt lat="50.20953" lon="3.98169">
        <ele>186</ele>
        <time>2012-09-12T16:00:55+02:00</time>
      </trkpt>
      <trkpt lat="50.20964" lon="3.98176">
        <ele>186</ele>
        <time>2012-09-12T16:00:56+02:00</time>
      </trkpt>
      <trkpt lat="50.20974" lon="3.98184">
        <ele>186</ele>
        <time>2012-09-12T16:00:57+02:00</time>
      </trkpt>
      <trkpt lat="50.20985" lon="3.9819">
        <ele>185</ele>
        <time>2012-09-12T16:00:58+02:00</time>
      </trkpt>
      <trkpt lat="50.20996" lon="3.98197">
        <ele>185</ele>
        <time>2012-09-12T16:00:59+02:00</time>
      </trkpt>
      <trkpt lat="50.21006" lon="3.98204">
        <ele>185</ele>
        <time>2012-09-12T16:01:00+02:00</time>
      </trkpt>
      <trkpt lat="50.21017" lon="3.98211">
        <ele>186</ele>
        <time>2012-09-12T16:01:01+02:00</time>
      </trkpt>
      <trkpt lat="50.21027" lon="3.98218">
        <ele>186</ele>
        <time>2012-09-12T16:01:02+02:00</time>
      </trkpt>
      <trkpt lat="50.21036" lon="3.98225">
        <ele>186</ele>
        <time>2012-09-12T16:01:03+02:00</time>
      </trkpt>
      <trkpt lat="50.21046" lon="3.98231">
        <ele>186</ele>
        <time>2012-09-12T16:01:04+02:00</time>
      </trkpt>
      <trkpt lat="50.21056" lon="3.98236">
        <ele>186</ele>
        <time>2012-09-12T16:01:05+02:00</time>
      </trkpt>
      <trkpt lat="50.21066" lon="3.9824">
        <ele>187</ele>
        <time>2012-09-12T16:01:06+02:00</time>
      </trkpt>
      <trkpt lat="50.21076" lon="3.98245">
        <ele>187</ele>
        <time>2012-09-12T16:01:07+02:00</time>
      </trkpt>
      <trkpt lat="50.21085" lon="3.98249">
        <ele>187</ele>
        <time>2012-09-12T16:01:08+02:00</time>
      </trkpt>
      <trkpt lat="50.21095" lon="3.98253">
        <ele>187</ele>
        <time>2012-09-12T16:01:09+02:00</time>
      </trkpt>
      <trkpt lat="50.21111" lon="3.98261">
        <ele>186</ele>
        <time>2012-09-12T16:01:11+02:00</time>
      </trkpt>
      <trkpt lat="50.21127" lon="3.98267">
        <ele>186</ele>
        <time>2012-09-12T16:01:13+02:00</time>
      </trkpt>
      <trkpt lat="50.2114" lon="3.98272">
        <ele>185</ele>
        <time>2012-09-12T16:01:15+02:00</time>
      </trkpt>
      <trkpt lat="50.2115" lon="3.98275">
        <ele>185</ele>
        <time>2012-09-12T16:01:17+02:00</time>
      </trkpt>
      <trkpt lat="50.21154" lon="3.98282">
        <ele>185</ele>
        <time>2012-09-12T16:02:59+02:00</time>
      </trkpt>
      <trkpt lat="50.21162" lon="3.98295">
        <ele>185</ele>
        <time>2012-09-12T16:03:02+02:00</time>
      </trkpt>
      <trkpt lat="50.21168" lon="3.98304">
        <ele>185</ele>
        <time>2012-09-12T16:03:04+02:00</time>
      </trkpt>
      <trkpt lat="50.21175" lon="3.98313">
        <ele>185</ele>
        <time>2012-09-12T16:03:06+02:00</time>
      </trkpt>
      <trkpt lat="50.21182" lon="3.98323">
        <ele>186</ele>
        <time>2012-09-12T16:03:08+02:00</time>
      </trkpt>
      <trkpt lat="50.21193" lon="3.98318">
        <ele>185</ele>
        <time>2012-09-12T16:03:11+02:00</time>
      </trkpt>
      <trkpt lat="50.212" lon="3.98321">
        <ele>185</ele>
        <time>2012-09-12T16:03:47+02:00</time>
      </trkpt>
      <trkpt lat="50.21213" lon="3.98322">
        <ele>185</ele>
        <time>2012-09-12T16:03:50+02:00</time>
      </trkpt>
      <trkpt lat="50.21225" lon="3.98323">
        <ele>185</ele>
        <time>2012-09-12T16:03:52+02:00</time>
      </trkpt>
      <trkpt lat="50.21233" lon="3.98328">
        <ele>185</ele>
        <time>2012-09-12T16:03:54+02:00</time>
      </trkpt>
      <trkpt lat="50.21247" lon="3.98325">
        <ele>185</ele>
        <time>2012-09-12T16:03:56+02:00</time>
      </trkpt>
      <trkpt lat="50.21263" lon="3.98321">
        <ele>185</ele>
        <time>2012-09-12T16:03:58+02:00</time>
      </trkpt>
      <trkpt lat="50.2128" lon="3.98315">
        <ele>184</ele>
        <time>2012-09-12T16:04:00+02:00</time>
      </trkpt>
      <trkpt lat="50.21298" lon="3.98309">
        <ele>183</ele>
        <time>2012-09-12T16:04:02+02:00</time>
      </trkpt>
      <trkpt lat="50.21315" lon="3.98303">
        <ele>183</ele>
        <time>2012-09-12T16:04:04+02:00</time>
      </trkpt>
      <trkpt lat="50.21324" lon="3.98299">
        <ele>182</ele>
        <time>2012-09-12T16:04:05+02:00</time>
      </trkpt>
      <trkpt lat="50.21342" lon="3.98293">
        <ele>182</ele>
        <time>2012-09-12T16:04:07+02:00</time>
      </trkpt>
      <trkpt lat="50.21359" lon="3.9829">
        <ele>182</ele>
        <time>2012-09-12T16:04:09+02:00</time>
      </trkpt>
      <trkpt lat="50.21373" lon="3.98288">
        <ele>181</ele>
        <time>2012-09-12T16:04:11+02:00</time>
      </trkpt>
      <trkpt lat="50.21386" lon="3.98286">
        <ele>181</ele>
        <time>2012-09-12T16:04:13+02:00</time>
      </trkpt>
      <trkpt lat="50.214" lon="3.98283">
        <ele>181</ele>
        <time>2012-09-12T16:04:15+02:00</time>
      </trkpt>
      <trkpt lat="50.21415" lon="3.98279">
        <ele>180</ele>
        <time>2012-09-12T16:04:17+02:00</time>
      </trkpt>
      <trkpt lat="50.21431" lon="3.98273">
        <ele>180</ele>
        <time>2012-09-12T16:04:19+02:00</time>
      </trkpt>
      <trkpt lat="50.21447" lon="3.98266">
        <ele>180</ele>
        <time>2012-09-12T16:04:21+02:00</time>
      </trkpt>
      <trkpt lat="50.21465" lon="3.98258">
        <ele>180</ele>
        <time>2012-09-12T16:04:23+02:00</time>
      </trkpt>
      <trkpt lat="50.21481" lon="3.98252">
        <ele>179</ele>
        <time>2012-09-12T16:04:25+02:00</time>
      </trkpt>
      <trkpt lat="50.21493" lon="3.98244">
        <ele>179</ele>
        <time>2012-09-12T16:04:27+02:00</time>
      </trkpt>
      <trkpt lat="50.21507" lon="3.98234">
        <ele>179</ele>
        <time>2012-09-12T16:04:29+02:00</time>
      </trkpt>
      <trkpt lat="50.21515" lon="3.98233">
        <ele>179</ele>
        <time>2012-09-12T16:04:31+02:00</time>
      </trkpt>
      <trkpt lat="50.21523" lon="3.98221">
        <ele>178</ele>
        <time>2012-09-12T16:04:36+02:00</time>
      </trkpt>
      <trkpt lat="50.21524" lon="3.98215">
        <ele>178</ele>
        <time>2012-09-12T16:04:39+02:00</time>
      </trkpt>
      <trkpt lat="50.21527" lon="3.98208">
        <ele>178</ele>
        <time>2021-11-11T11:52:14+01:00</time>
      </trkpt>
      <trkpt lat="50.21535" lon="3.98197">
        <ele>178</ele>
        <time>2012-09-12T16:04:41+02:00</time>
      </trkpt>
      <trkpt lat="50.21542" lon="3.98182">
        <ele>178</ele>
        <time>2012-09-12T16:04:43+02:00</time>
      </trkpt>
      <trkpt lat="50.21551" lon="3.98166">
        <ele>178</ele>
        <time>2012-09-12T16:04:45+02:00</time>
      </trkpt>
      <trkpt lat="50.21559" lon="3.9815">
        <ele>177</ele>
        <time>2012-09-12T16:04:47+02:00</time>
      </trkpt>
      <trkpt lat="50.21568" lon="3.9814">
        <ele>177</ele>
        <time>2012-09-12T16:04:49+02:00</time>
      </trkpt>
      <trkpt lat="50.21575" lon="3.98134">
        <ele>177</ele>
        <time>2021-11-11T11:52:44+01:00</time>
      </trkpt>
      <trkpt lat="50.21579" lon="3.9812">
        <ele>176</ele>
        <time>2012-09-12T16:04:51+02:00</time>
      </trkpt>
      <trkpt lat="50.21586" lon="3.9811">
        <ele>176</ele>
        <time>2012-09-12T16:04:53+02:00</time>
      </trkpt>
      <trkpt lat="50.21593" lon="3.98097">
        <ele>175</ele>
        <time>2012-09-12T16:04:56+02:00</time>
      </trkpt>
      <trkpt lat="50.21599" lon="3.98079">
        <ele>175</ele>
        <time>2012-09-12T16:04:59+02:00</time>
      </trkpt>
      <trkpt lat="50.21605" lon="3.98064">
        <ele>175</ele>
        <time>2012-09-12T16:05:01+02:00</time>
      </trkpt>
      <trkpt lat="50.2161" lon="3.98047">
        <ele>175</ele>
        <time>2012-09-12T16:05:03+02:00</time>
      </trkpt>
      <trkpt lat="50.21618" lon="3.98028">
        <ele>174</ele>
        <time>2012-09-12T16:05:05+02:00</time>
      </trkpt>
      <trkpt lat="50.21625" lon="3.98012">
        <ele>174</ele>
        <time>2012-09-12T16:05:07+02:00</time>
      </trkpt>
      <trkpt lat="50.21635" lon="3.9799">
        <ele>174</ele>
        <time>2012-09-12T16:05:09+02:00</time>
      </trkpt>
      <trkpt lat="50.21638" lon="3.97971">
        <ele>174</ele>
        <time>2012-09-12T16:05:11+02:00</time>
      </trkpt>
      <trkpt lat="50.2164" lon="3.97951">
        <ele>173</ele>
        <time>2012-09-12T16:05:13+02:00</time>
      </trkpt>
      <trkpt lat="50.21639" lon="3.97935">
        <ele>173</ele>
        <time>2012-09-12T16:05:15+02:00</time>
      </trkpt>
      <trkpt lat="50.21637" lon="3.97918">
        <ele>173</ele>
        <time>2012-09-12T16:05:17+02:00</time>
      </trkpt>
      <trkpt lat="50.21636" lon="3.97898">
        <ele>173</ele>
        <time>2012-09-12T16:05:19+02:00</time>
      </trkpt>
      <trkpt lat="50.21636" lon="3.9788">
        <ele>173</ele>
        <time>2012-09-12T16:05:21+02:00</time>
      </trkpt>
      <trkpt lat="50.21636" lon="3.97857">
        <ele>173</ele>
        <time>2012-09-12T16:05:23+02:00</time>
      </trkpt>
      <trkpt lat="50.21636" lon="3.97832">
        <ele>173</ele>
        <time>2012-09-12T16:05:25+02:00</time>
      </trkpt>
      <trkpt lat="50.2164" lon="3.9781">
        <ele>173</ele>
        <time>2012-09-12T16:05:27+02:00</time>
      </trkpt>
      <trkpt lat="50.2164" lon="3.97798">
        <ele>174</ele>
        <time>2012-09-12T16:05:29+02:00</time>
      </trkpt>
      <trkpt lat="50.21644" lon="3.97778">
        <ele>174</ele>
        <time>2012-09-12T16:05:31+02:00</time>
      </trkpt>
      <trkpt lat="50.21645" lon="3.97757">
        <ele>175</ele>
        <time>2012-09-12T16:05:33+02:00</time>
      </trkpt>
      <trkpt lat="50.21649" lon="3.97735">
        <ele>175</ele>
        <time>2012-09-12T16:05:35+02:00</time>
      </trkpt>
      <trkpt lat="50.21651" lon="3.97708">
        <ele>175</ele>
        <time>2012-09-12T16:05:37+02:00</time>
      </trkpt>
      <trkpt lat="50.21654" lon="3.97685">
        <ele>176</ele>
        <time>2012-09-12T16:05:39+02:00</time>
      </trkpt>
      <trkpt lat="50.21656" lon="3.97666">
        <ele>176</ele>
        <time>2012-09-12T16:05:40+02:00</time>
      </trkpt>
      <trkpt lat="50.21658" lon="3.97648">
        <ele>176</ele>
        <time>2012-09-12T16:05:41+02:00</time>
      </trkpt>
      <trkpt lat="50.21657" lon="3.97634">
        <ele>176</ele>
        <time>2012-09-12T16:05:42+02:00</time>
      </trkpt>
      <trkpt lat="50.21658" lon="3.97622">
        <ele>175</ele>
        <time>2012-09-12T16:05:43+02:00</time>
      </trkpt>
      <trkpt lat="50.21658" lon="3.97607">
        <ele>175</ele>
        <time>2012-09-12T16:05:44+02:00</time>
      </trkpt>
      <trkpt lat="50.21656" lon="3.97593">
        <ele>175</ele>
        <time>2012-09-12T16:05:45+02:00</time>
      </trkpt>
      <trkpt lat="50.21656" lon="3.97575">
        <ele>175</ele>
        <time>2012-09-12T16:05:46+02:00</time>
      </trkpt>
      <trkpt lat="50.21653" lon="3.97561">
        <ele>174</ele>
        <time>2012-09-12T16:05:47+02:00</time>
      </trkpt>
      <trkpt lat="50.21649" lon="3.97549">
        <ele>174</ele>
        <time>2012-09-12T16:05:48+02:00</time>
      </trkpt>
      <trkpt lat="50.21646" lon="3.97533">
        <ele>174</ele>
        <time>2012-09-12T16:05:49+02:00</time>
      </trkpt>
      <trkpt lat="50.21641" lon="3.97511">
        <ele>173</ele>
        <time>2012-09-12T16:05:50+02:00</time>
      </trkpt>
      <trkpt lat="50.21636" lon="3.97491">
        <ele>173</ele>
        <time>2012-09-12T16:05:52+02:00</time>
      </trkpt>
      <trkpt lat="50.21634" lon="3.97474">
        <ele>173</ele>
        <time>2012-09-12T16:05:54+02:00</time>
      </trkpt>
      <trkpt lat="50.21634" lon="3.97455">
        <ele>172</ele>
        <time>2012-09-12T16:05:56+02:00</time>
      </trkpt>
      <trkpt lat="50.21633" lon="3.97437">
        <ele>172</ele>
        <time>2012-09-12T16:05:59+02:00</time>
      </trkpt>
      <trkpt lat="50.21631" lon="3.97425">
        <ele>172</ele>
        <time>2012-09-12T16:06:03+02:00</time>
      </trkpt>
      <trkpt lat="50.21632" lon="3.97414">
        <ele>172</ele>
        <time>2012-09-12T16:06:05+02:00</time>
      </trkpt>
      <trkpt lat="50.21634" lon="3.97394">
        <ele>172</ele>
        <time>2012-09-12T16:06:07+02:00</time>
      </trkpt>
      <trkpt lat="50.21636" lon="3.97375">
        <ele>172</ele>
        <time>2012-09-12T16:06:08+02:00</time>
      </trkpt>
      <trkpt lat="50.21637" lon="3.97357">
        <ele>172</ele>
        <time>2012-09-12T16:06:09+02:00</time>
      </trkpt>
      <trkpt lat="50.21638" lon="3.97342">
        <ele>172</ele>
        <time>2012-09-12T16:06:10+02:00</time>
      </trkpt>
      <trkpt lat="50.21634" lon="3.97328">
        <ele>172</ele>
        <time>2012-09-12T16:06:11+02:00</time>
      </trkpt>
      <trkpt lat="50.21635" lon="3.97311">
        <ele>172</ele>
        <time>2012-09-12T16:06:12+02:00</time>
      </trkpt>
      <trkpt lat="50.21636" lon="3.97294">
        <ele>172</ele>
        <time>2012-09-12T16:06:13+02:00</time>
      </trkpt>
      <trkpt lat="50.21637" lon="3.97276">
        <ele>172</ele>
        <time>2012-09-12T16:06:14+02:00</time>
      </trkpt>
      <trkpt lat="50.21637" lon="3.97258">
        <ele>172</ele>
        <time>2012-09-12T16:06:15+02:00</time>
      </trkpt>
      <trkpt lat="50.21637" lon="3.9724">
        <ele>172</ele>
        <time>2012-09-12T16:06:16+02:00</time>
      </trkpt>
      <trkpt lat="50.21637" lon="3.97222">
        <ele>172</ele>
        <time>2012-09-12T16:06:17+02:00</time>
      </trkpt>
      <trkpt lat="50.21638" lon="3.97204">
        <ele>172</ele>
        <time>2012-09-12T16:06:18+02:00</time>
      </trkpt>
      <trkpt lat="50.21638" lon="3.97187">
        <ele>172</ele>
        <time>2012-09-12T16:06:19+02:00</time>
      </trkpt>
      <trkpt lat="50.21639" lon="3.97171">
        <ele>172</ele>
        <time>2012-09-12T16:06:20+02:00</time>
      </trkpt>
      <trkpt lat="50.21639" lon="3.97155">
        <ele>172</ele>
        <time>2012-09-12T16:06:21+02:00</time>
      </trkpt>
      <trkpt lat="50.21638" lon="3.97141">
        <ele>172</ele>
        <time>2012-09-12T16:06:22+02:00</time>
      </trkpt>
      <trkpt lat="50.21634" lon="3.97126">
        <ele>172</ele>
        <time>2012-09-12T16:06:24+02:00</time>
      </trkpt>
      <trkpt lat="50.21622" lon="3.971">
        <ele>171</ele>
        <time>2012-09-12T16:06:26+02:00</time>
      </trkpt>
      <trkpt lat="50.21617" lon="3.97085">
        <ele>171</ele>
        <time>2012-09-12T16:07:20+02:00</time>
      </trkpt>
      <trkpt lat="50.21631" lon="3.97073">
        <ele>172</ele>
        <time>2012-09-12T16:07:29+02:00</time>
      </trkpt>
      <trkpt lat="50.21641" lon="3.97067">
        <ele>172</ele>
        <time>2012-09-12T16:07:38+02:00</time>
      </trkpt>
      <trkpt lat="50.2165" lon="3.97059">
        <ele>173</ele>
        <time>2012-09-12T16:07:47+02:00</time>
      </trkpt>
      <trkpt lat="50.21664" lon="3.97061">
        <ele>173</ele>
        <time>2012-09-12T16:07:57+02:00</time>
      </trkpt>
      <trkpt lat="50.21674" lon="3.97058">
        <ele>174</ele>
        <time>2012-09-12T16:08:05+02:00</time>
      </trkpt>
      <trkpt lat="50.21691" lon="3.97058">
        <ele>174</ele>
        <time>2012-09-12T16:08:15+02:00</time>
      </trkpt>
      <trkpt lat="50.21703" lon="3.97062">
        <ele>174</ele>
        <time>2012-09-12T16:08:22+02:00</time>
      </trkpt>
      <trkpt lat="50.21713" lon="3.97063">
        <ele>174</ele>
        <time>2012-09-12T16:08:29+02:00</time>
      </trkpt>
      <trkpt lat="50.21723" lon="3.97064">
        <ele>175</ele>
        <time>2012-09-12T16:08:38+02:00</time>
      </trkpt>
      <trkpt lat="50.21736" lon="3.97066">
        <ele>175</ele>
        <time>2012-09-12T16:08:47+02:00</time>
      </trkpt>
      <trkpt lat="50.2175" lon="3.97061">
        <ele>175</ele>
        <time>2012-09-12T16:08:57+02:00</time>
      </trkpt>
      <trkpt lat="50.21764" lon="3.97056">
        <ele>176</ele>
        <time>2012-09-12T16:09:05+02:00</time>
      </trkpt>
      <trkpt lat="50.21774" lon="3.97049">
        <ele>176</ele>
        <time>2012-09-12T16:09:51+02:00</time>
      </trkpt>
      <trkpt lat="50.21787" lon="3.97042">
        <ele>177</ele>
        <time>2012-09-12T16:10:00+02:00</time>
      </trkpt>
      <trkpt lat="50.21797" lon="3.97035">
        <ele>177</ele>
        <time>2012-09-12T16:10:09+02:00</time>
      </trkpt>
      <trkpt lat="50.21809" lon="3.97025">
        <ele>178</ele>
        <time>2012-09-12T16:10:18+02:00</time>
      </trkpt>
      <trkpt lat="50.2182" lon="3.97017">
        <ele>178</ele>
        <time>2012-09-12T16:10:27+02:00</time>
      </trkpt>
      <trkpt lat="50.21831" lon="3.97008">
        <ele>179</ele>
        <time>2012-09-12T16:10:36+02:00</time>
      </trkpt>
      <trkpt lat="50.21844" lon="3.96999">
        <ele>179</ele>
        <time>2012-09-12T16:10:45+02:00</time>
      </trkpt>
      <trkpt lat="50.21855" lon="3.96991">
        <ele>180</ele>
        <time>2012-09-12T16:10:54+02:00</time>
      </trkpt>
      <trkpt lat="50.21864" lon="3.96985">
        <ele>180</ele>
        <time>2012-09-12T16:11:04+02:00</time>
      </trkpt>
      <trkpt lat="50.21871" lon="3.96983">
        <ele>181</ele>
        <time>2012-09-12T16:14:52+02:00</time>
      </trkpt>
      <trkpt lat="50.21875" lon="3.96972">
        <ele>181</ele>
        <time>2012-09-12T16:15:23+02:00</time>
      </trkpt>
      <trkpt lat="50.2187" lon="3.96948">
        <ele>181</ele>
        <time>2012-09-12T16:15:27+02:00</time>
      </trkpt>
      <trkpt lat="50.21864" lon="3.96927">
        <ele>181</ele>
        <time>2012-09-12T16:15:30+02:00</time>
      </trkpt>
      <trkpt lat="50.21856" lon="3.96898">
        <ele>181</ele>
        <time>2012-09-12T16:15:33+02:00</time>
      </trkpt>
      <trkpt lat="50.21848" lon="3.96878">
        <ele>181</ele>
        <time>2012-09-12T16:15:35+02:00</time>
      </trkpt>
      <trkpt lat="50.21842" lon="3.9686">
        <ele>180</ele>
        <time>2012-09-12T16:15:36+02:00</time>
      </trkpt>
      <trkpt lat="50.21832" lon="3.96839">
        <ele>180</ele>
        <time>2012-09-12T16:15:37+02:00</time>
      </trkpt>
      <trkpt lat="50.21826" lon="3.96821">
        <ele>180</ele>
        <time>2012-09-12T16:15:38+02:00</time>
      </trkpt>
      <trkpt lat="50.21822" lon="3.96803">
        <ele>180</ele>
        <time>2012-09-12T16:15:39+02:00</time>
      </trkpt>
      <trkpt lat="50.21814" lon="3.96785">
        <ele>180</ele>
        <time>2012-09-12T16:15:40+02:00</time>
      </trkpt>
      <trkpt lat="50.21806" lon="3.96769">
        <ele>180</ele>
        <time>2012-09-12T16:15:41+02:00</time>
      </trkpt>
      <trkpt lat="50.21798" lon="3.96754">
        <ele>180</ele>
        <time>2012-09-12T16:15:42+02:00</time>
      </trkpt>
      <trkpt lat="50.21791" lon="3.9674">
        <ele>179</ele>
        <time>2012-09-12T16:15:43+02:00</time>
      </trkpt>
      <trkpt lat="50.21785" lon="3.96728">
        <ele>179</ele>
        <time>2012-09-12T16:15:44+02:00</time>
      </trkpt>
      <trkpt lat="50.21773" lon="3.96704">
        <ele>179</ele>
        <time>2012-09-12T16:15:46+02:00</time>
      </trkpt>
      <trkpt lat="50.21763" lon="3.96679">
        <ele>179</ele>
        <time>2012-09-12T16:15:48+02:00</time>
      </trkpt>
      <trkpt lat="50.21753" lon="3.96653">
        <ele>179</ele>
        <time>2012-09-12T16:15:50+02:00</time>
      </trkpt>
      <trkpt lat="50.21749" lon="3.96639">
        <ele>179</ele>
        <time>2012-09-12T16:15:51+02:00</time>
      </trkpt>
      <trkpt lat="50.21745" lon="3.96626">
        <ele>179</ele>
        <time>2012-09-12T16:15:52+02:00</time>
      </trkpt>
      <trkpt lat="50.21741" lon="3.96612">
        <ele>179</ele>
        <time>2012-09-12T16:15:53+02:00</time>
      </trkpt>
      <trkpt lat="50.21734" lon="3.96585">
        <ele>179</ele>
        <time>2012-09-12T16:15:55+02:00</time>
      </trkpt>
      <trkpt lat="50.21729" lon="3.96562">
        <ele>179</ele>
        <time>2012-09-12T16:15:57+02:00</time>
      </trkpt>
      <trkpt lat="50.21725" lon="3.96544">
        <ele>179</ele>
        <time>2012-09-12T16:15:59+02:00</time>
      </trkpt>
      <trkpt lat="50.21721" lon="3.96532">
        <ele>179</ele>
        <time>2012-09-12T16:16:02+02:00</time>
      </trkpt>
      <trkpt lat="50.21719" lon="3.96523">
        <ele>179</ele>
        <time>2012-09-12T16:16:34+02:00</time>
      </trkpt>
      <trkpt lat="50.21715" lon="3.9651">
        <ele>179</ele>
        <time>2012-09-12T16:16:39+02:00</time>
      </trkpt>
      <trkpt lat="50.21713" lon="3.96494">
        <ele>179</ele>
        <time>2012-09-12T16:16:43+02:00</time>
      </trkpt>
      <trkpt lat="50.2171" lon="3.96476">
        <ele>178</ele>
        <time>2012-09-12T16:16:47+02:00</time>
      </trkpt>
      <trkpt lat="50.21708" lon="3.96462">
        <ele>178</ele>
        <time>2012-09-12T16:16:50+02:00</time>
      </trkpt>
      <trkpt lat="50.21706" lon="3.96447">
        <ele>178</ele>
        <time>2012-09-12T16:16:53+02:00</time>
      </trkpt>
      <trkpt lat="50.21704" lon="3.96432">
        <ele>178</ele>
        <time>2012-09-12T16:16:56+02:00</time>
      </trkpt>
      <trkpt lat="50.21701" lon="3.96418">
        <ele>178</ele>
        <time>2012-09-12T16:16:59+02:00</time>
      </trkpt>
      <trkpt lat="50.21698" lon="3.96402">
        <ele>178</ele>
        <time>2012-09-12T16:17:02+02:00</time>
      </trkpt>
      <trkpt lat="50.21695" lon="3.96386">
        <ele>178</ele>
        <time>2012-09-12T16:17:05+02:00</time>
      </trkpt>
      <trkpt lat="50.21691" lon="3.96372">
        <ele>178</ele>
        <time>2012-09-12T16:17:08+02:00</time>
      </trkpt>
      <trkpt lat="50.21689" lon="3.96357">
        <ele>178</ele>
        <time>2012-09-12T16:17:11+02:00</time>
      </trkpt>
      <trkpt lat="50.21684" lon="3.96341">
        <ele>178</ele>
        <time>2012-09-12T16:17:14+02:00</time>
      </trkpt>
      <trkpt lat="50.21679" lon="3.96325">
        <ele>178</ele>
        <time>2012-09-12T16:17:17+02:00</time>
      </trkpt>
      <trkpt lat="50.21677" lon="3.96311">
        <ele>178</ele>
        <time>2012-09-12T16:17:20+02:00</time>
      </trkpt>
      <trkpt lat="50.21674" lon="3.96302">
        <ele>178</ele>
        <time>2021-11-11T12:02:54+01:00</time>
      </trkpt>
      <trkpt lat="50.2167" lon="3.96289">
        <ele>177</ele>
        <time>2012-09-12T16:17:23+02:00</time>
      </trkpt>
      <trkpt lat="50.21667" lon="3.96278">
        <ele>177</ele>
        <time>2012-09-12T16:17:26+02:00</time>
      </trkpt>
      <trkpt lat="50.21664" lon="3.96261">
        <ele>177</ele>
        <time>2012-09-12T16:17:29+02:00</time>
      </trkpt>
      <trkpt lat="50.21662" lon="3.96246">
        <ele>177</ele>
        <time>2012-09-12T16:17:32+02:00</time>
      </trkpt>
      <trkpt lat="50.2166" lon="3.96234">
        <ele>176</ele>
        <time>2012-09-12T16:17:35+02:00</time>
      </trkpt>
      <trkpt lat="50.2166" lon="3.96227">
        <ele>176</ele>
        <time>2012-09-12T16:17:40+02:00</time>
      </trkpt>
      <trkpt lat="50.21658" lon="3.96219">
        <ele>176</ele>
        <time>2012-09-12T16:17:50+02:00</time>
      </trkpt>
      <trkpt lat="50.21667" lon="3.96221">
        <ele>176</ele>
        <time>2012-09-12T16:18:33+02:00</time>
      </trkpt>
      <trkpt lat="50.2168" lon="3.96225">
        <ele>176</ele>
        <time>2012-09-12T16:18:42+02:00</time>
      </trkpt>
      <trkpt lat="50.21681" lon="3.96209">
        <ele>176</ele>
        <time>2012-09-12T16:19:36+02:00</time>
      </trkpt>
      <trkpt lat="50.21681" lon="3.96194">
        <ele>176</ele>
        <time>2012-09-12T16:19:45+02:00</time>
      </trkpt>
      <trkpt lat="50.21683" lon="3.96179">
        <ele>175</ele>
        <time>2012-09-12T16:19:52+02:00</time>
      </trkpt>
      <trkpt lat="50.21684" lon="3.96164">
        <ele>175</ele>
        <time>2012-09-12T16:19:58+02:00</time>
      </trkpt>
      <trkpt lat="50.21684" lon="3.96153">
        <ele>175</ele>
        <time>2012-09-12T16:20:03+02:00</time>
      </trkpt>
      <trkpt lat="50.21682" lon="3.9614">
        <ele>175</ele>
        <time>2012-09-12T16:20:09+02:00</time>
      </trkpt>
      <trkpt lat="50.21679" lon="3.96127">
        <ele>175</ele>
        <time>2012-09-12T16:20:15+02:00</time>
      </trkpt>
      <trkpt lat="50.21673" lon="3.96114">
        <ele>176</ele>
        <time>2012-09-12T16:20:21+02:00</time>
      </trkpt>
      <trkpt lat="50.21668" lon="3.96101">
        <ele>176</ele>
        <time>2012-09-12T16:20:27+02:00</time>
      </trkpt>
      <trkpt lat="50.21664" lon="3.9609">
        <ele>176</ele>
        <time>2012-09-12T16:20:32+02:00</time>
      </trkpt>
      <trkpt lat="50.21661" lon="3.96078">
        <ele>176</ele>
        <time>2012-09-12T16:20:38+02:00</time>
      </trkpt>
      <trkpt lat="50.21656" lon="3.96068">
        <ele>176</ele>
        <time>2012-09-12T16:20:43+02:00</time>
      </trkpt>
      <trkpt lat="50.21653" lon="3.96057">
        <ele>176</ele>
        <time>2012-09-12T16:20:48+02:00</time>
      </trkpt>
      <trkpt lat="50.21648" lon="3.96046">
        <ele>176</ele>
        <time>2012-09-12T16:20:53+02:00</time>
      </trkpt>
      <trkpt lat="50.21646" lon="3.96037">
        <ele>176</ele>
        <time>2012-09-12T16:20:58+02:00</time>
      </trkpt>
      <trkpt lat="50.2164" lon="3.96027">
        <ele>176</ele>
        <time>2012-09-12T16:21:03+02:00</time>
      </trkpt>
      <trkpt lat="50.21636" lon="3.96015">
        <ele>176</ele>
        <time>2012-09-12T16:21:09+02:00</time>
      </trkpt>
      <trkpt lat="50.21631" lon="3.96005">
        <ele>176</ele>
        <time>2012-09-12T16:21:16+02:00</time>
      </trkpt>
      <trkpt lat="50.21626" lon="3.95997">
        <ele>176</ele>
        <time>2012-09-12T16:21:22+02:00</time>
      </trkpt>
      <trkpt lat="50.21621" lon="3.95983">
        <ele>176</ele>
        <time>2012-09-12T16:21:29+02:00</time>
      </trkpt>
      <trkpt lat="50.21615" lon="3.95971">
        <ele>176</ele>
        <time>2012-09-12T16:21:36+02:00</time>
      </trkpt>
      <trkpt lat="50.2161" lon="3.95958">
        <ele>175</ele>
        <time>2012-09-12T16:21:46+02:00</time>
      </trkpt>
      <trkpt lat="50.21603" lon="3.95942">
        <ele>175</ele>
        <time>2012-09-12T16:21:54+02:00</time>
      </trkpt>
      <trkpt lat="50.21594" lon="3.95924">
        <ele>175</ele>
        <time>2012-09-12T16:22:04+02:00</time>
      </trkpt>
      <trkpt lat="50.21587" lon="3.95909">
        <ele>175</ele>
        <time>2012-09-12T16:22:13+02:00</time>
      </trkpt>
      <trkpt lat="50.21579" lon="3.9589">
        <ele>174</ele>
        <time>2012-09-12T16:22:22+02:00</time>
      </trkpt>
      <trkpt lat="50.21573" lon="3.95875">
        <ele>173</ele>
        <time>2012-09-12T16:22:31+02:00</time>
      </trkpt>
      <trkpt lat="50.21565" lon="3.95861">
        <ele>173</ele>
        <time>2012-09-12T16:22:38+02:00</time>
      </trkpt>
      <trkpt lat="50.21557" lon="3.95847">
        <ele>172</ele>
        <time>2012-09-12T16:22:46+02:00</time>
      </trkpt>
      <trkpt lat="50.2155" lon="3.95834">
        <ele>171</ele>
        <time>2012-09-12T16:22:53+02:00</time>
      </trkpt>
      <trkpt lat="50.21544" lon="3.95823">
        <ele>171</ele>
        <time>2012-09-12T16:23:01+02:00</time>
      </trkpt>
      <trkpt lat="50.21535" lon="3.95811">
        <ele>171</ele>
        <time>2012-09-12T16:23:10+02:00</time>
      </trkpt>
      <trkpt lat="50.21524" lon="3.95796">
        <ele>170</ele>
        <time>2012-09-12T16:23:20+02:00</time>
      </trkpt>
      <trkpt lat="50.21515" lon="3.95785">
        <ele>170</ele>
        <time>2012-09-12T16:23:29+02:00</time>
      </trkpt>
      <trkpt lat="50.21508" lon="3.9577">
        <ele>169</ele>
        <time>2012-09-12T16:23:37+02:00</time>
      </trkpt>
      <trkpt lat="50.21496" lon="3.95755">
        <ele>169</ele>
        <time>2012-09-12T16:23:47+02:00</time>
      </trkpt>
      <trkpt lat="50.21487" lon="3.95746">
        <ele>169</ele>
        <time>2012-09-12T16:23:54+02:00</time>
      </trkpt>
      <trkpt lat="50.21477" lon="3.95742">
        <ele>168</ele>
        <time>2012-09-12T16:24:03+02:00</time>
      </trkpt>
      <trkpt lat="50.21468" lon="3.95741">
        <ele>168</ele>
        <time>2012-09-12T16:24:13+02:00</time>
      </trkpt>
      <trkpt lat="50.21465" lon="3.9573">
        <ele>168</ele>
        <time>2012-09-12T16:24:23+02:00</time>
      </trkpt>
      <trkpt lat="50.21449" lon="3.95731">
        <ele>168</ele>
        <time>2012-09-12T16:24:31+02:00</time>
      </trkpt>
      <trkpt lat="50.21439" lon="3.95731">
        <ele>167</ele>
        <time>2012-09-12T16:24:37+02:00</time>
      </trkpt>
      <trkpt lat="50.2143" lon="3.95731">
        <ele>167</ele>
        <time>2012-09-12T16:24:43+02:00</time>
      </trkpt>
      <trkpt lat="50.21421" lon="3.95731">
        <ele>167</ele>
        <time>2012-09-12T16:24:50+02:00</time>
      </trkpt>
      <trkpt lat="50.21413" lon="3.95732">
        <ele>167</ele>
        <time>2012-09-12T16:24:59+02:00</time>
      </trkpt>
      <trkpt lat="50.21402" lon="3.95731">
        <ele>166</ele>
        <time>2012-09-12T16:25:06+02:00</time>
      </trkpt>
      <trkpt lat="50.21401" lon="3.95744">
        <ele>166</ele>
        <time>2012-09-12T16:25:50+02:00</time>
      </trkpt>
      <trkpt lat="50.21404" lon="3.9577">
        <ele>166</ele>
        <time>2012-09-12T16:25:59+02:00</time>
      </trkpt>
      <trkpt lat="50.21412" lon="3.95772">
        <ele>167</ele>
        <time>2012-09-12T16:26:07+02:00</time>
      </trkpt>
      <trkpt lat="50.21413" lon="3.95792">
        <ele>167</ele>
        <time>2012-09-12T16:26:16+02:00</time>
      </trkpt>
      <trkpt lat="50.21415" lon="3.95809">
        <ele>167</ele>
        <time>2012-09-12T16:26:24+02:00</time>
      </trkpt>
      <trkpt lat="50.21417" lon="3.95826">
        <ele>167</ele>
        <time>2012-09-12T16:26:33+02:00</time>
      </trkpt>
      <trkpt lat="50.2142" lon="3.9585">
        <ele>167</ele>
        <time>2012-09-12T16:26:42+02:00</time>
      </trkpt>
      <trkpt lat="50.21425" lon="3.95869">
        <ele>168</ele>
        <time>2012-09-12T16:26:51+02:00</time>
      </trkpt>
      <trkpt lat="50.21421" lon="3.95878">
        <ele>168</ele>
        <time>2012-09-12T16:27:00+02:00</time>
      </trkpt>
      <trkpt lat="50.21417" lon="3.95889">
        <ele>168</ele>
        <time>2012-09-12T16:27:09+02:00</time>
      </trkpt>
      <trkpt lat="50.21423" lon="3.95907">
        <ele>169</ele>
        <time>2012-09-12T16:27:18+02:00</time>
      </trkpt>
      <trkpt lat="50.21427" lon="3.95926">
        <ele>169</ele>
        <time>2021-11-11T12:08:29+01:00</time>
      </trkpt>
      <trkpt lat="50.21435" lon="3.95934">
        <ele>169</ele>
        <time>2012-09-12T16:27:26+02:00</time>
      </trkpt>
      <trkpt lat="50.2144" lon="3.95959">
        <ele>169</ele>
        <time>2012-09-12T16:27:35+02:00</time>
      </trkpt>
      <trkpt lat="50.21441" lon="3.95979">
        <ele>169</ele>
        <time>2012-09-12T16:27:42+02:00</time>
      </trkpt>
      <trkpt lat="50.21433" lon="3.95997">
        <ele>169</ele>
        <time>2012-09-12T16:27:49+02:00</time>
      </trkpt>
      <trkpt lat="50.21425" lon="3.96007">
        <ele>168</ele>
        <time>2012-09-12T16:27:55+02:00</time>
      </trkpt>
      <trkpt lat="50.21419" lon="3.96019">
        <ele>168</ele>
        <time>2012-09-12T16:28:02+02:00</time>
      </trkpt>
      <trkpt lat="50.21413" lon="3.96033">
        <ele>168</ele>
        <time>2012-09-12T16:28:09+02:00</time>
      </trkpt>
      <trkpt lat="50.21412" lon="3.96047">
        <ele>168</ele>
        <time>2012-09-12T16:28:15+02:00</time>
      </trkpt>
      <trkpt lat="50.21412" lon="3.96062">
        <ele>168</ele>
        <time>2012-09-12T16:28:22+02:00</time>
      </trkpt>
      <trkpt lat="50.21415" lon="3.96078">
        <ele>168</ele>
        <time>2012-09-12T16:28:28+02:00</time>
      </trkpt>
      <trkpt lat="50.21418" lon="3.96096">
        <ele>168</ele>
        <time>2012-09-12T16:28:35+02:00</time>
      </trkpt>
      <trkpt lat="50.21422" lon="3.96109">
        <ele>168</ele>
        <time>2012-09-12T16:28:41+02:00</time>
      </trkpt>
      <trkpt lat="50.21428" lon="3.96123">
        <ele>168</ele>
        <time>2012-09-12T16:28:47+02:00</time>
      </trkpt>
      <trkpt lat="50.21432" lon="3.96137">
        <ele>168</ele>
        <time>2012-09-12T16:28:54+02:00</time>
      </trkpt>
      <trkpt lat="50.21437" lon="3.96151">
        <ele>168</ele>
        <time>2012-09-12T16:29:01+02:00</time>
      </trkpt>
      <trkpt lat="50.21438" lon="3.96166">
        <ele>169</ele>
        <time>2012-09-12T16:29:09+02:00</time>
      </trkpt>
    </trkseg>
  </trk>
</gpx>